Time;durP1;ratioP1;P1;durP2;ratioP2;P2;SDS_P1;SDS_P2;PMS_P1;PMS_P2;Temp;Humidity;BMP_temperature;BMP_pressure;BME280_temperature;BME280_humidity;BME280_pressure;Samples;Min_cycle;Max_cycle;Signal;HPM_P1;HPM_P2
2022/07/11 00:01:18;;;;;;;3.40;1.30;;;;;;;;;;108922;1263;22430;-40
2022/07/11 00:03:50;;;;;;;3.20;1.50;;;;;;;;;;108947;1263;22493;-42
2022/07/11 00:06:22;;;;;;;2.20;1.00;;;;;;;;;;108930;1256;22543;-41
2022/07/11 00:08:54;;;;;;;3.80;1.30;;;;;;;;;;108957;1263;22514;-41
2022/07/11 00:11:27;;;;;;;3.40;1.30;;;;;;;;;;108921;1257;25261;-41
2022/07/11 00:13:59;;;;;;;2.20;1.10;;;;;;;;;;108925;1257;25302;-41
2022/07/11 00:16:32;;;;;;;2.70;1.10;;;;;;;;;;108936;1256;22729;-41
2022/07/11 00:19:05;;;;;;;2.90;1.50;;;;;;;;;;108924;1256;25287;-41
2022/07/11 00:21:37;;;;;;;2.50;1.20;;;;;;;;;;108922;1263;22966;-41
2022/07/11 00:24:09;;;;;;;2.80;1.20;;;;;;;;;;108920;1263;22531;-41
2022/07/11 00:26:41;;;;;;;3.10;1.60;;;;;;;;;;108840;1263;22499;-41
2022/07/11 00:29:13;;;;;;;3.30;1.20;;;;;;;;;;108930;1263;22520;-42
2022/07/11 00:31:46;;;;;;;2.90;1.40;;;;;;;;;;108904;1263;22914;-41
2022/07/11 00:34:18;;;;;;;3.60;1.20;;;;;;;;;;108913;1263;22910;-41
2022/07/11 00:36:50;;;;;;;3.80;1.50;;;;;;;;;;108920;1263;22450;-41
2022/07/11 00:39:22;;;;;;;3.00;1.30;;;;;;;;;;108918;1263;22612;-41
2022/07/11 00:41:56;;;;;;;3.10;1.30;;;;;;;;;;108912;1263;22535;-41
2022/07/11 00:44:28;;;;;;;2.40;1.20;;;;;;;;;;108942;1257;22564;-41
2022/07/11 00:47:00;;;;;;;2.60;1.20;;;;;;;;;;108958;1257;22545;-41
2022/07/11 00:49:33;;;;;;;2.30;1.10;;;;;;;;;;108881;1263;24181;-41
2022/07/11 00:52:06;;;;;;;3.50;1.60;;;;;;;;;;108914;1257;22839;-41
2022/07/11 00:54:38;;;;;;;3.30;1.30;;;;;;;;;;108912;1263;22528;-42
2022/07/11 00:57:10;;;;;;;3.80;1.40;;;;;;;;;;108925;1263;22117;-41
2022/07/11 00:59:43;;;;;;;3.40;1.20;;;;;;;;;;108913;1263;22524;-42
2022/07/11 01:02:16;;;;;;;2.90;1.30;;;;;;;;;;108914;1257;25343;-41
2022/07/11 01:04:48;;;;;;;3.80;1.50;;;;;;;;;;108958;1263;22703;-41
2022/07/11 01:07:20;;;;;;;2.80;1.10;;;;;;;;;;108926;1257;22586;-41
2022/07/11 01:09:53;;;;;;;3.80;1.30;;;;;;;;;;108895;1263;22792;-41
2022/07/11 01:12:25;;;;;;;3.60;1.50;;;;;;;;;;108931;1263;22611;-41
2022/07/11 01:14:59;;;;;;;5.00;1.30;;;;;;;;;;108890;1263;22603;-42
2022/07/11 01:17:32;;;;;;;2.90;1.10;;;;;;;;;;108909;1263;22648;-41
2022/07/11 01:20:05;;;;;;;3.60;1.40;;;;;;;;;;108920;1263;22431;-42
2022/07/11 01:22:40;;;;;;;3.00;1.20;;;;;;;;;;108877;1258;22536;-41
2022/07/11 01:25:29;;;;;;;3.30;1.30;;;;;;;;;;108939;1257;22556;-42
2022/07/11 01:28:03;;;;;;;3.30;1.20;;;;;;;;;;108932;1263;24173;-41
2022/07/11 01:30:36;;;;;;;2.60;1.20;;;;;;;;;;108923;1263;22525;-41
2022/07/11 01:33:08;;;;;;;1.80;0.90;;;;;;;;;;108898;1257;22781;-41
2022/07/11 01:35:41;;;;;;;3.50;1.30;;;;;;;;;;108871;1263;22490;-41
2022/07/11 01:38:13;;;;;;;3.30;1.10;;;;;;;;;;108875;1263;24221;-41
2022/07/11 01:40:45;;;;;;;2.40;1.00;;;;;;;;;;108923;1263;22719;-41
2022/07/11 01:43:17;;;;;;;3.50;1.30;;;;;;;;;;108927;1256;22528;-42
2022/07/11 01:45:53;;;;;;;3.40;1.10;;;;;;;;;;108943;1263;22527;-41
2022/07/11 01:48:25;;;;;;;3.40;1.30;;;;;;;;;;108912;1263;22530;-41
2022/07/11 01:50:57;;;;;;;2.70;1.20;;;;;;;;;;108967;1263;24179;-42
2022/07/11 01:53:29;;;;;;;2.40;1.00;;;;;;;;;;108904;1263;22611;-42
2022/07/11 01:56:01;;;;;;;3.00;1.20;;;;;;;;;;108944;1257;22521;-41
2022/07/11 01:58:33;;;;;;;3.20;1.30;;;;;;;;;;108914;1263;22449;-41
2022/07/11 02:01:05;;;;;;;4.10;1.50;;;;;;;;;;108949;1263;22524;-41
2022/07/11 02:03:38;;;;;;;3.10;1.10;;;;;;;;;;108945;1263;22514;-41
2022/07/11 02:06:11;;;;;;;3.50;1.50;;;;;;;;;;108943;1263;22508;-41
2022/07/11 02:08:42;;;;;;;2.90;1.30;;;;;;;;;;108911;1263;22527;-41
2022/07/11 02:11:15;;;;;;;4.60;1.40;;;;;;;;;;108953;1263;22580;-40
2022/07/11 02:13:47;;;;;;;4.50;1.30;;;;;;;;;;108908;1263;22530;-41
2022/07/11 02:16:19;;;;;;;3.30;1.20;;;;;;;;;;108922;1257;22535;-41
2022/07/11 02:18:51;;;;;;;5.10;1.40;;;;;;;;;;108947;1263;22524;-41
2022/07/11 02:21:24;;;;;;;3.70;1.40;;;;;;;;;;108921;1257;22549;-41
2022/07/11 02:23:56;;;;;;;3.80;1.20;;;;;;;;;;108909;1263;23662;-42
2022/07/11 02:26:29;;;;;;;3.90;1.30;;;;;;;;;;108907;1263;24205;-43
2022/07/11 02:29:02;;;;;;;3.60;1.20;;;;;;;;;;108912;1256;22654;-42
2022/07/11 02:31:34;;;;;;;7.00;1.40;;;;;;;;;;108905;1263;22665;-41
2022/07/11 02:34:06;;;;;;;2.90;1.20;;;;;;;;;;108938;1263;24282;-41
2022/07/11 02:36:38;;;;;;;3.70;1.40;;;;;;;;;;108885;1263;24154;-40
2022/07/11 02:39:10;;;;;;;3.30;1.30;;;;;;;;;;108906;1263;25916;-42
2022/07/11 02:41:45;;;;;;;3.30;1.00;;;;;;;;;;108925;1263;24285;-42
2022/07/11 02:44:19;;;;;;;3.40;1.20;;;;;;;;;;108906;1263;22525;-41
2022/07/11 02:46:52;;;;;;;3.60;1.10;;;;;;;;;;108908;1263;22522;-40
2022/07/11 02:49:24;;;;;;;3.40;1.10;;;;;;;;;;108926;1263;22522;-41
2022/07/11 02:51:56;;;;;;;4.00;1.30;;;;;;;;;;108924;1263;22530;-41
2022/07/11 02:54:29;;;;;;;3.60;1.00;;;;;;;;;;108926;1263;22525;-41
2022/07/11 02:57:01;;;;;;;3.60;1.20;;;;;;;;;;108968;1263;22522;-41
2022/07/11 02:59:33;;;;;;;4.20;1.00;;;;;;;;;;108980;1263;22449;-41
2022/07/11 03:02:06;;;;;;;2.60;1.10;;;;;;;;;;108937;1257;22501;-42
2022/07/11 03:04:39;;;;;;;5.10;1.10;;;;;;;;;;108903;1263;22451;-41
2022/07/11 03:07:11;;;;;;;2.80;1.10;;;;;;;;;;108932;1263;22526;-41
2022/07/11 03:09:43;;;;;;;3.20;1.10;;;;;;;;;;108924;1256;22835;-41
2022/07/11 03:12:15;;;;;;;3.90;1.40;;;;;;;;;;108914;1263;22521;-41
2022/07/11 03:14:47;;;;;;;3.30;1.30;;;;;;;;;;108906;1263;24330;-42
2022/07/11 03:17:20;;;;;;;4.00;1.10;;;;;;;;;;108911;1263;22511;-41
2022/07/11 03:19:52;;;;;;;3.00;1.10;;;;;;;;;;108897;1263;22493;-42
2022/07/11 03:22:24;;;;;;;2.40;1.00;;;;;;;;;;108904;1256;25212;-40
2022/07/11 03:24:57;;;;;;;3.80;1.00;;;;;;;;;;108885;1257;25215;-41
2022/07/11 03:27:29;;;;;;;2.50;1.00;;;;;;;;;;108905;1263;23810;-40
2022/07/11 03:30:03;;;;;;;2.50;1.10;;;;;;;;;;108887;1256;22760;-40
2022/07/11 03:32:37;;;;;;;4.20;1.30;;;;;;;;;;108903;1263;22604;-40
2022/07/11 03:38:01;;;;;;;3.80;1.10;;;;;;;;;;108898;1263;22530;-41
2022/07/11 03:40:33;;;;;;;2.80;1.10;;;;;;;;;;108938;1263;22556;-41
2022/07/11 03:43:05;;;;;;;3.60;1.20;;;;;;;;;;108891;1263;25379;-41
2022/07/11 03:45:38;;;;;;;3.90;1.20;;;;;;;;;;108910;1263;22580;-40
2022/07/11 03:48:11;;;;;;;5.10;0.90;;;;;;;;;;108916;1263;22514;-41
2022/07/11 03:50:43;;;;;;;3.90;1.10;;;;;;;;;;108959;1256;22700;-41
2022/07/11 03:53:15;;;;;;;3.90;1.40;;;;;;;;;;108881;1256;22474;-41
2022/07/11 03:55:47;;;;;;;3.00;1.10;;;;;;;;;;108879;1263;22563;-41
2022/07/11 03:58:20;;;;;;;3.30;1.10;;;;;;;;;;108896;1256;23347;-41
2022/07/11 04:00:52;;;;;;;2.90;1.20;;;;;;;;;;108879;1258;22818;-41
2022/07/11 04:03:25;;;;;;;3.20;1.10;;;;;;;;;;108913;1263;24183;-41
2022/07/11 04:05:57;;;;;;;3.30;1.20;;;;;;;;;;108902;1263;24329;-41
2022/07/11 04:08:30;;;;;;;3.30;1.20;;;;;;;;;;108902;1257;22665;-42
2022/07/11 04:11:02;;;;;;;3.90;1.10;;;;;;;;;;108960;1263;22663;-41
2022/07/11 04:13:35;;;;;;;4.00;1.30;;;;;;;;;;108909;1263;22800;-42
2022/07/11 04:16:08;;;;;;;4.10;1.30;;;;;;;;;;108882;1263;22520;-40
2022/07/11 04:18:40;;;;;;;4.70;1.20;;;;;;;;;;108927;1256;25306;-41
2022/07/11 04:21:12;;;;;;;3.70;1.10;;;;;;;;;;108934;1263;22524;-40
2022/07/11 04:23:45;;;;;;;3.70;1.20;;;;;;;;;;108954;1263;22708;-41
2022/07/11 04:26:17;;;;;;;3.50;1.30;;;;;;;;;;108904;1263;22644;-42
2022/07/11 04:28:49;;;;;;;4.50;1.30;;;;;;;;;;108958;1263;22556;-41
2022/07/11 04:31:21;;;;;;;2.70;1.20;;;;;;;;;;108899;1263;24352;-41
2022/07/11 04:33:53;;;;;;;2.90;1.10;;;;;;;;;;108932;1263;22518;-41
2022/07/11 04:36:26;;;;;;;3.00;1.30;;;;;;;;;;108927;1256;22638;-40
2022/07/11 04:38:58;;;;;;;2.80;1.10;;;;;;;;;;108924;1257;22725;-40
2022/07/11 04:41:30;;;;;;;3.30;1.20;;;;;;;;;;108878;1263;22526;-41
2022/07/11 04:44:02;;;;;;;5.60;1.50;;;;;;;;;;108915;1263;24330;-41
2022/07/11 04:46:35;;;;;;;2.60;1.30;;;;;;;;;;108889;1263;24201;-41
2022/07/11 04:49:07;;;;;;;2.80;1.00;;;;;;;;;;108937;1256;22498;-40
2022/07/11 04:51:39;;;;;;;5.30;1.80;;;;;;;;;;108895;1263;24141;-41
2022/07/11 04:54:11;;;;;;;2.20;1.00;;;;;;;;;;108902;1263;22523;-41
2022/07/11 04:56:43;;;;;;;4.40;1.30;;;;;;;;;;108975;1256;22704;-41
2022/07/11 04:59:15;;;;;;;4.50;1.30;;;;;;;;;;108947;1257;25278;-41
2022/07/11 05:01:48;;;;;;;4.20;1.30;;;;;;;;;;108906;1263;22525;-40
2022/07/11 05:04:20;;;;;;;3.50;1.30;;;;;;;;;;108892;1263;22601;-41
2022/07/11 05:06:52;;;;;;;2.90;1.20;;;;;;;;;;108918;1263;25379;-40
2022/07/11 05:09:24;;;;;;;3.10;1.20;;;;;;;;;;108918;1263;22531;-40
2022/07/11 05:11:56;;;;;;;3.00;1.30;;;;;;;;;;108862;1263;22520;-40
2022/07/11 05:14:28;;;;;;;2.80;1.20;;;;;;;;;;108875;1263;22532;-41
2022/07/11 05:17:00;;;;;;;2.80;1.20;;;;;;;;;;108914;1257;22776;-41
2022/07/11 05:19:32;;;;;;;4.80;1.40;;;;;;;;;;108896;1256;22631;-42
2022/07/11 05:22:05;;;;;;;3.90;1.80;;;;;;;;;;108957;1263;22580;-41
2022/07/11 05:24:37;;;;;;;3.70;1.30;;;;;;;;;;108910;1263;24186;-42
2022/07/11 05:27:11;;;;;;;2.60;1.10;;;;;;;;;;108940;1263;22837;-42
2022/07/11 05:29:43;;;;;;;3.50;1.40;;;;;;;;;;108928;1263;24117;-41
2022/07/11 05:32:16;;;;;;;3.50;1.60;;;;;;;;;;108887;1263;22631;-40
2022/07/11 05:34:48;;;;;;;2.70;1.20;;;;;;;;;;108885;1263;22582;-41
2022/07/11 05:37:20;;;;;;;4.00;1.50;;;;;;;;;;108926;1263;22537;-41
2022/07/11 05:39:53;;;;;;;2.60;1.20;;;;;;;;;;108948;1256;26037;-40
2022/07/11 05:42:25;;;;;;;3.10;1.40;;;;;;;;;;108948;1263;22821;-40
2022/07/11 05:44:57;;;;;;;3.90;1.50;;;;;;;;;;108889;1263;22645;-41
2022/07/11 05:47:29;;;;;;;3.80;1.50;;;;;;;;;;108918;1263;22529;-41
2022/07/11 05:50:02;;;;;;;3.30;1.60;;;;;;;;;;108911;1263;22519;-41
2022/07/11 05:52:34;;;;;;;3.50;1.50;;;;;;;;;;108904;1263;22450;-41
2022/07/11 05:55:09;;;;;;;5.30;1.90;;;;;;;;;;108897;1263;22524;-41
2022/07/11 05:57:41;;;;;;;4.20;1.80;;;;;;;;;;108912;1256;22523;-41
2022/07/11 06:00:16;;;;;;;4.00;2.00;;;;;;;;;;108907;1263;22423;-41
2022/07/11 06:02:48;;;;;;;3.60;1.70;;;;;;;;;;108917;1263;22540;-41
2022/07/11 06:05:20;;;;;;;4.20;2.20;;;;;;;;;;108928;1263;24205;-42
2022/07/11 06:10:42;;;;;;;5.40;2.10;;;;;;;;;;108921;1256;22752;-40
2022/07/11 06:13:14;;;;;;;5.20;2.10;;;;;;;;;;108919;1263;22503;-41
2022/07/11 06:15:47;;;;;;;5.00;2.00;;;;;;;;;;108916;1263;22527;-41
2022/07/11 06:18:23;;;;;;;4.00;2.20;;;;;;;;;;108939;1263;24170;-41
2022/07/11 06:20:55;;;;;;;3.90;2.00;;;;;;;;;;108926;1263;22644;-41
2022/07/11 06:23:28;;;;;;;4.00;2.10;;;;;;;;;;108910;1256;22702;-41
2022/07/11 06:26:01;;;;;;;3.90;2.00;;;;;;;;;;108946;1263;23023;-40
2022/07/11 06:28:34;;;;;;;3.50;2.10;;;;;;;;;;108915;1256;25209;-41
2022/07/11 06:31:07;;;;;;;4.20;2.00;;;;;;;;;;108902;1263;22543;-41
2022/07/11 06:33:40;;;;;;;3.40;2.30;;;;;;;;;;108667;1263;300032;-41
2022/07/11 06:36:12;;;;;;;5.80;2.60;;;;;;;;;;108886;1263;22547;-42
2022/07/11 06:38:44;;;;;;;3.80;2.00;;;;;;;;;;108901;1263;25286;-41
2022/07/11 06:41:17;;;;;;;3.30;2.00;;;;;;;;;;108924;1263;22515;-40
2022/07/11 06:43:49;;;;;;;4.70;2.10;;;;;;;;;;108911;1263;22866;-41
2022/07/11 06:46:22;;;;;;;4.20;2.30;;;;;;;;;;108916;1263;22548;-42
2022/07/11 06:48:55;;;;;;;;;;;;;;;;;;108920;1257;22514;-41
2022/07/11 06:51:29;;;;;;;4.90;2.10;;;;;;;;;;108908;1263;22588;-41
2022/07/11 06:54:01;;;;;;;3.70;1.80;;;;;;;;;;108898;1256;22524;-41
2022/07/11 06:56:33;;;;;;;4.00;2.10;;;;;;;;;;108947;1263;22524;-40
2022/07/11 06:59:05;;;;;;;4.10;2.10;;;;;;;;;;108920;1256;22528;-41
2022/07/11 07:01:38;;;;;;;5.40;2.20;;;;;;;;;;108951;1256;22523;-41
2022/07/11 07:04:11;;;;;;;5.90;2.20;;;;;;;;;;108910;1263;24208;-41
2022/07/11 07:06:43;;;;;;;15.00;4.80;;;;;;;;;;108902;1263;21694;-40
2022/07/11 07:09:15;;;;;;;13.60;4.80;;;;;;;;;;108882;1263;24144;-41
2022/07/11 07:11:48;;;;;;;10.20;4.30;;;;;;;;;;108935;1263;24272;-40
2022/07/11 07:14:20;;;;;;;14.20;5.00;;;;;;;;;;108904;1256;25203;-40
2022/07/11 07:16:52;;;;;;;11.70;5.20;;;;;;;;;;108886;1255;25373;-41
2022/07/11 07:19:26;;;;;;;12.90;5.20;;;;;;;;;;108873;1263;23917;-41
2022/07/11 07:21:58;;;;;;;8.80;4.30;;;;;;;;;;108888;1263;22555;-41
2022/07/11 07:24:30;;;;;;;10.80;4.70;;;;;;;;;;108973;1263;22543;-40
2022/07/11 07:27:03;;;;;;;9.30;4.00;;;;;;;;;;108897;1263;22514;-40
2022/07/11 07:29:36;;;;;;;10.50;4.60;;;;;;;;;;108930;1263;22818;-41
2022/07/11 07:32:10;;;;;;;8.50;4.30;;;;;;;;;;108904;1263;22523;-41
2022/07/11 07:34:42;;;;;;;7.90;3.90;;;;;;;;;;108929;1263;22490;-41
2022/07/11 07:37:14;;;;;;;10.90;4.30;;;;;;;;;;108934;1263;22583;-41
2022/07/11 07:39:47;;;;;;;8.20;3.80;;;;;;;;;;108890;1263;22613;-41
2022/07/11 07:42:19;;;;;;;9.00;3.80;;;;;;;;;;108918;1263;22828;-40
2022/07/11 07:44:51;;;;;;;8.30;4.20;;;;;;;;;;108917;1263;24227;-41
2022/07/11 07:47:23;;;;;;;8.60;3.90;;;;;;;;;;108925;1256;22524;-41
2022/07/11 07:49:56;;;;;;;7.30;4.00;;;;;;;;;;108879;1256;22524;-40
2022/07/11 07:52:28;;;;;;;7.80;4.50;;;;;;;;;;108631;1255;34744;-35
2022/07/11 07:55:00;;;;;;;7.40;3.80;;;;;;;;;;108677;1256;34198;-47
2022/07/11 07:57:32;;;;;;;6.00;3.80;;;;;;;;;;108699;1254;33326;-40
2022/07/11 08:02:56;;;;;;;7.30;3.60;;;;;;;;;;108659;1263;34330;-41
2022/07/11 08:05:28;;;;;;;4.90;3.30;;;;;;;;;;108639;1256;33450;-42
2022/07/11 08:08:01;;;;;;;6.80;4.00;;;;;;;;;;108650;1257;34072;-41
2022/07/11 08:10:33;;;;;;;6.80;3.40;;;;;;;;;;108699;1257;33908;-38
2022/07/11 08:13:05;;;;;;;6.60;3.50;;;;;;;;;;108652;1262;33910;-37
2022/07/11 08:15:38;;;;;;;5.60;3.20;;;;;;;;;;108683;1255;33841;-39
2022/07/11 08:18:10;;;;;;;5.30;3.10;;;;;;;;;;108663;1262;33332;-45
2022/07/11 08:20:42;;;;;;;4.70;3.00;;;;;;;;;;108667;1263;34005;-36
2022/07/11 08:23:14;;;;;;;5.20;2.90;;;;;;;;;;108728;1257;33650;-35
2022/07/11 08:25:47;;;;;;;4.80;2.90;;;;;;;;;;108683;1255;33701;-36
2022/07/11 08:28:19;;;;;;;6.30;2.70;;;;;;;;;;108627;1256;34063;-38
2022/07/11 08:30:51;;;;;;;5.20;3.10;;;;;;;;;;108672;1257;33858;-38
2022/07/11 08:33:23;;;;;;;5.30;3.00;;;;;;;;;;108622;1263;33134;-38
2022/07/11 08:35:56;;;;;;;5.80;2.60;;;;;;;;;;108643;1257;33724;-38
2022/07/11 08:38:28;;;;;;;10.60;4.10;;;;;;;;;;108637;1257;33875;-38
2022/07/11 08:41:00;;;;;;;9.20;3.20;;;;;;;;;;108616;1263;33915;-38
2022/07/11 08:43:32;;;;;;;4.50;2.50;;;;;;;;;;108645;1257;33628;-38
2022/07/11 08:46:05;;;;;;;6.20;2.80;;;;;;;;;;108677;1256;33840;-39
2022/07/11 08:48:40;;;;;;;4.60;2.20;;;;;;;;;;108563;1256;33191;-38
2022/07/11 08:51:14;;;;;;;4.70;2.00;;;;;;;;;;108448;1263;34249;-38
2022/07/11 08:53:46;;;;;;;4.70;2.10;;;;;;;;;;108866;1263;34093;-38
2022/07/11 08:56:21;;;;;;;5.50;2.10;;;;;;;;;;108515;1256;33685;-38
2022/07/11 08:58:54;;;;;;;5.70;2.00;;;;;;;;;;108460;1257;33706;-38
2022/07/11 09:01:32;;;;;;;4.40;1.60;;;;;;;;;;108458;1256;34282;-38
2022/07/11 09:04:05;;;;;;;5.30;2.10;;;;;;;;;;108541;1263;33925;-38
2022/07/11 09:06:36;;;;;;;;;;;;;;;;;;108579;1260;33707;-38
2022/07/11 09:09:09;;;;;;;4.30;1.80;;;;;;;;;;108625;1256;33411;-38
2022/07/11 09:11:57;;;;;;;7.60;1.50;;;;;;;;;;108656;1256;34176;-38
2022/07/11 09:14:31;;;;;;;4.30;1.30;;;;;;;;;;108652;1263;33988;-39
2022/07/11 09:17:05;;;;;;;3.60;1.40;;;;;;;;;;108639;1263;33769;-38
2022/07/11 09:19:39;;;;;;;4.30;1.20;;;;;;;;;;108711;1257;33634;-38
2022/07/11 09:25:23;;;;;;;3.40;1.00;;;;;;;;;;108565;1256;33698;-36
2022/07/11 09:28:01;;;;;;;2.70;0.90;;;;;;;;;;108613;1260;33763;-38
2022/07/11 09:30:35;;;;;;;3.40;1.30;;;;;;;;;;108692;1256;33513;-37
2022/07/11 09:33:10;;;;;;;2.30;0.80;;;;;;;;;;108650;1263;34051;-37
2022/07/11 09:35:45;;;;;;;2.40;0.90;;;;;;;;;;108650;1256;33633;-43
2022/07/11 09:38:21;;;;;;;2.80;1.00;;;;;;;;;;108665;1256;34241;-41
2022/07/11 09:40:53;;;;;;;1.80;0.80;;;;;;;;;;108603;1256;33627;-38
2022/07/11 09:43:31;;;;;;;1.90;0.80;;;;;;;;;;108616;1257;33863;-39
2022/07/11 09:46:09;;;;;;;3.60;1.00;;;;;;;;;;108553;1263;33784;-44
2022/07/11 09:48:46;;;;;;;3.60;0.90;;;;;;;;;;108648;1263;33307;-46
2022/07/11 09:51:22;;;;;;;2.70;1.20;;;;;;;;;;108586;1256;34553;-42
2022/07/11 09:53:58;;;;;;;2.90;0.70;;;;;;;;;;108591;1263;33744;-43
2022/07/11 09:56:36;;;;;;;3.30;1.00;;;;;;;;;;108642;1263;33724;-46
2022/07/11 09:59:10;;;;;;;2.20;0.80;;;;;;;;;;108629;1256;34199;-51
2022/07/11 10:01:43;;;;;;;3.70;0.90;;;;;;;;;;108636;1263;33654;-40
2022/07/11 10:04:16;;;;;;;2.20;0.70;;;;;;;;;;108604;1261;34058;-41
2022/07/11 10:06:47;;;;;;;;;;;;;;;;;;108646;1263;34359;-37
2022/07/11 10:09:19;;;;;;;2.00;0.70;;;;;;;;;;108516;1256;34060;-37
2022/07/11 10:11:51;;;;;;;2.00;0.70;;;;;;;;;;108588;1263;33717;-37
2022/07/11 10:14:24;;;;;;;2.20;0.70;;;;;;;;;;108559;1257;34336;-36
2022/07/11 10:17:10;;;;;;;2.90;0.80;;;;;;;;;;108610;1256;33817;-37
2022/07/11 10:19:50;;;;;;;3.20;0.90;;;;;;;;;;108611;1257;33729;-41
2022/07/11 10:22:30;;;;;;;1.50;0.60;;;;;;;;;;108606;1256;33805;-39
2022/07/11 10:25:12;;;;;;;2.80;0.70;;;;;;;;;;108533;1255;34171;-38
2022/07/11 10:27:58;;;;;;;1.40;0.50;;;;;;;;;;108590;1256;33728;-42
2022/07/11 10:30:52;;;;;;;3.60;0.90;;;;;;;;;;108635;1257;33321;-39
2022/07/11 10:33:24;;;;;;;1.90;0.60;;;;;;;;;;108611;1256;34073;-38
2022/07/11 10:35:58;;;;;;;2.90;0.90;;;;;;;;;;108616;1257;33832;-38
2022/07/11 10:38:30;;;;;;;1.60;0.70;;;;;;;;;;108617;1263;33434;-43
2022/07/11 10:41:03;;;;;;;2.20;0.70;;;;;;;;;;108592;1256;33957;-40
2022/07/11 10:43:42;;;;;;;2.30;0.60;;;;;;;;;;108606;1257;34428;-41
2022/07/11 10:46:21;;;;;;;3.20;0.70;;;;;;;;;;108556;1263;34015;-38
2022/07/11 10:49:03;;;;;;;1.80;0.50;;;;;;;;;;108575;1263;34245;-37
2022/07/11 10:51:52;;;;;;;2.60;0.70;;;;;;;;;;108642;1257;34312;-42
2022/07/11 10:54:37;;;;;;;2.80;0.90;;;;;;;;;;108784;1256;22554;-44
2022/07/11 10:57:17;;;;;;;2.90;0.70;;;;;;;;;;108762;1263;22538;-43
2022/07/11 11:00:04;;;;;;;3.00;0.70;;;;;;;;;;108980;1263;22706;-42
2022/07/11 11:03:07;;;;;;;2.10;0.70;;;;;;;;;;110422;1263;31020;-43
2022/07/11 11:05:53;;;;;;;3.30;0.70;;;;;;;;;;108532;1256;33303;-42
2022/07/11 11:08:49;;;;;;;1.90;0.60;;;;;;;;;;108631;1257;32881;-40
2022/07/11 11:11:41;;;;;;;2.00;0.60;;;;;;;;;;108559;1263;33510;-43
2022/07/11 11:14:26;;;;;;;0.80;0.40;;;;;;;;;;108650;1256;33719;-43
2022/07/11 11:17:36;;;;;;;7.50;1.20;;;;;;;;;;108548;1259;33567;-43
2022/07/11 11:20:33;;;;;;;6.70;1.20;;;;;;;;;;108388;1259;33214;-43
2022/07/11 11:23:14;;;;;;;3.30;1.00;;;;;;;;;;108560;1265;33353;-44
2022/07/11 11:25:51;;;;;;;2.20;0.80;;;;;;;;;;108534;1259;33830;-42
2022/07/11 11:28:25;;;;;;;3.10;0.80;;;;;;;;;;108531;1257;33428;-44
2022/07/11 11:31:03;;;;;;;2.50;0.70;;;;;;;;;;108567;1258;34028;-43
2022/07/11 11:33:37;;;;;;;3.00;0.90;;;;;;;;;;108563;1265;33871;-42
2022/07/11 11:36:13;;;;;;;3.20;1.00;;;;;;;;;;108492;1259;33088;-44
2022/07/11 11:38:47;;;;;;;3.60;0.90;;;;;;;;;;108536;1258;33518;-43
2022/07/11 11:41:26;;;;;;;2.40;0.80;;;;;;;;;;108538;1265;33433;-43
2022/07/11 11:44:03;;;;;;;3.20;1.10;;;;;;;;;;108519;1262;33209;-42
2022/07/11 11:46:36;;;;;;;2.30;0.80;;;;;;;;;;108529;1260;33763;-43
2022/07/11 11:49:09;;;;;;;2.40;0.70;;;;;;;;;;108551;1263;33535;-42
2022/07/11 11:51:43;;;;;;;2.80;0.80;;;;;;;;;;108558;1257;33908;-38
2022/07/11 11:54:24;;;;;;;2.30;0.60;;;;;;;;;;108533;1265;33684;-38
2022/07/11 11:56:58;;;;;;;2.50;0.70;;;;;;;;;;108555;1260;33537;-39
2022/07/11 11:59:33;;;;;;;1.90;0.80;;;;;;;;;;108546;1260;33853;-38
2022/07/11 12:02:06;;;;;;;3.30;0.90;;;;;;;;;;108541;1258;33705;-39
2022/07/11 12:04:41;;;;;;;2.80;1.10;;;;;;;;;;108533;1258;33471;-38
2022/07/11 12:07:14;;;;;;;3.60;0.80;;;;;;;;;;108513;1265;33916;-38
2022/07/11 12:09:55;;;;;;;3.10;1.00;;;;;;;;;;108563;1263;33252;-39
2022/07/11 12:12:52;;;;;;;3.70;0.90;;;;;;;;;;108551;1264;34194;-39
2022/07/11 12:16:39;;;;;;;3.80;0.90;;;;;;;;;;108560;1260;34048;-39
2022/07/11 12:18:28;;;;;;;5.40;1.00;;;;;;;;;;108673;1260;33660;-39
2022/07/11 12:21:11;;;;;;;7.00;1.20;;;;;;;;;;108630;1258;33637;-38
2022/07/11 12:23:44;;;;;;;3.60;1.20;;;;;;;;;;108651;1256;33624;-39
2022/07/11 12:26:16;;;;;;;4.30;0.70;;;;;;;;;;108670;1263;33706;-39
2022/07/11 12:29:08;;;;;;;3.70;0.80;;;;;;;;;;108677;1256;33522;-39
2022/07/11 12:31:50;;;;;;;3.10;0.90;;;;;;;;;;108657;1257;33589;-37
2022/07/11 12:34:25;;;;;;;1.70;0.80;;;;;;;;;;108705;1256;33502;-37
2022/07/11 12:37:08;;;;;;;1.80;0.50;;;;;;;;;;108675;1261;33542;-36
2022/07/11 12:39:49;;;;;;;2.30;0.90;;;;;;;;;;108675;1257;33422;-39
2022/07/11 12:42:32;;;;;;;3.10;0.70;;;;;;;;;;108688;1257;35480;-39
2022/07/11 12:45:11;;;;;;;2.90;0.70;;;;;;;;;;108608;1263;33793;-39
2022/07/11 12:47:47;;;;;;;2.40;0.80;;;;;;;;;;108634;1258;34109;-39
2022/07/11 12:50:22;;;;;;;2.00;0.60;;;;;;;;;;108669;1261;33265;-39
2022/07/11 12:52:57;;;;;;;2.30;0.60;;;;;;;;;;108642;1263;33564;-39
2022/07/11 12:55:33;;;;;;;2.90;0.80;;;;;;;;;;108668;1261;33137;-39
2022/07/11 12:58:13;;;;;;;2.80;0.80;;;;;;;;;;108619;1257;33567;-39
2022/07/11 13:01:00;;;;;;;1.80;0.50;;;;;;;;;;108699;1255;33708;-39
2022/07/11 13:03:34;;;;;;;1.80;0.50;;;;;;;;;;108656;1263;33909;-37
2022/07/11 13:06:09;;;;;;;2.80;0.70;;;;;;;;;;108655;1258;33698;-37
2022/07/11 13:08:49;;;;;;;3.50;0.80;;;;;;;;;;108610;1261;33592;-39
2022/07/11 13:11:24;;;;;;;3.10;0.70;;;;;;;;;;108666;1263;33866;-37
2022/07/11 13:13:57;;;;;;;0.90;0.50;;;;;;;;;;108644;1263;33732;-36
2022/07/11 13:16:30;;;;;;;2.90;0.70;;;;;;;;;;108629;1263;33527;-36
2022/07/11 13:19:04;;;;;;;2.80;0.60;;;;;;;;;;108568;1257;33913;-36
2022/07/11 13:21:36;;;;;;;3.50;0.70;;;;;;;;;;108687;1263;33985;-37
2022/07/11 13:24:09;;;;;;;1.80;0.60;;;;;;;;;;108631;1257;33752;-37
2022/07/11 13:26:41;;;;;;;2.70;0.90;;;;;;;;;;108688;1257;33807;-37
2022/07/11 13:29:14;;;;;;;2.00;0.70;;;;;;;;;;108655;1256;34122;-37
2022/07/11 13:31:46;;;;;;;3.70;0.90;;;;;;;;;;108660;1263;33927;-38
2022/07/11 13:34:19;;;;;;;4.90;0.90;;;;;;;;;;108661;1260;33976;-37
2022/07/11 13:36:51;;;;;;;2.50;0.70;;;;;;;;;;108661;1256;33772;-37
2022/07/11 13:39:23;;;;;;;3.10;0.80;;;;;;;;;;108668;1257;33204;-37
2022/07/11 13:41:58;;;;;;;4.00;0.70;;;;;;;;;;108670;1263;33535;-37
2022/07/11 13:44:31;;;;;;;3.10;1.10;;;;;;;;;;108669;1257;33545;-39
2022/07/11 13:47:04;;;;;;;1.80;0.80;;;;;;;;;;108623;1260;33542;-39
2022/07/11 13:49:37;;;;;;;3.80;1.20;;;;;;;;;;108652;1260;33566;-37
2022/07/11 13:52:11;;;;;;;3.30;1.60;;;;;;;;;;108636;1263;33828;-37
2022/07/11 13:54:43;;;;;;;4.30;1.20;;;;;;;;;;108669;1260;33122;-37
2022/07/11 13:57:16;;;;;;;3.60;1.70;;;;;;;;;;108653;1263;33992;-37
2022/07/11 13:59:48;;;;;;;4.20;2.50;;;;;;;;;;108632;1263;33594;-36
2022/07/11 14:02:21;;;;;;;4.80;2.60;;;;;;;;;;108670;1256;34557;-36
2022/07/11 14:04:53;;;;;;;3.90;1.20;;;;;;;;;;108695;1263;33028;-36
2022/07/11 14:07:26;;;;;;;1.50;0.90;;;;;;;;;;108703;1257;33686;-35
2022/07/11 14:09:58;;;;;;;3.30;1.00;;;;;;;;;;108629;1257;33438;-35
2022/07/11 14:12:32;;;;;;;3.90;1.10;;;;;;;;;;108684;1261;33529;-37
2022/07/11 14:15:05;;;;;;;3.20;1.00;;;;;;;;;;108616;1256;33534;-37
2022/07/11 14:17:37;;;;;;;2.60;0.90;;;;;;;;;;108677;1263;33538;-37
2022/07/11 14:20:13;;;;;;;3.90;1.10;;;;;;;;;;108612;1263;33651;-46
2022/07/11 14:22:45;;;;;;;2.60;1.00;;;;;;;;;;109683;1260;33441;-46
2022/07/11 14:25:18;;;;;;;2.20;1.00;;;;;;;;;;108558;1257;33205;-46
2022/07/11 14:27:53;;;;;;;2.40;0.70;;;;;;;;;;108525;1258;33477;-45
2022/07/11 14:30:26;;;;;;;2.50;0.70;;;;;;;;;;108491;1257;33070;-47
2022/07/11 14:32:58;;;;;;;2.80;0.70;;;;;;;;;;108556;1261;33377;-47
2022/07/11 14:35:32;;;;;;;2.70;0.90;;;;;;;;;;108219;1260;448844;-45
2022/07/11 14:38:05;;;;;;;3.80;0.90;;;;;;;;;;108650;1257;33410;-44
2022/07/11 14:40:38;;;;;;;1.90;0.70;;;;;;;;;;108577;1263;33632;-47
2022/07/11 14:43:10;;;;;;;3.80;1.00;;;;;;;;;;108617;1263;33406;-47
2022/07/11 14:45:42;;;;;;;3.20;0.80;;;;;;;;;;108643;1257;33095;-46
2022/07/11 14:48:15;;;;;;;4.80;1.20;;;;;;;;;;108656;1256;33609;-47
2022/07/11 14:50:47;;;;;;;3.20;1.30;;;;;;;;;;108668;1258;33423;-47
2022/07/11 14:53:20;;;;;;;3.80;1.20;;;;;;;;;;108624;1263;33641;-46
2022/07/11 14:55:52;;;;;;;4.90;1.90;;;;;;;;;;108648;1261;31891;-48
2022/07/11 14:58:25;;;;;;;4.30;1.80;;;;;;;;;;108650;1260;33504;-46
2022/07/11 15:00:58;;;;;;;6.60;1.90;;;;;;;;;;108675;1260;33485;-41
2022/07/11 15:03:43;;;;;;;5.40;2.20;;;;;;;;;;108700;1257;33818;-40
2022/07/11 15:06:20;;;;;;;5.00;2.60;;;;;;;;;;108638;1260;33186;-45
2022/07/11 15:14:32;;;;;;;8.00;5.20;;;;;;;;;;108660;1257;33656;-47
2022/07/11 15:17:05;;;;;;;6.60;4.70;;;;;;;;;;108648;1260;33105;-47
2022/07/11 15:19:37;;;;;;;6.80;5.10;;;;;;;;;;108670;1260;33602;-45
2022/07/11 15:22:09;;;;;;;5.60;5.00;;;;;;;;;;108637;1263;33527;-45
2022/07/11 15:24:41;;;;;;;8.70;7.80;;;;;;;;;;108649;1257;33733;-46
2022/07/11 15:27:14;;;;;;;8.30;7.50;;;;;;;;;;108651;1264;33484;-46
2022/07/11 15:29:46;;;;;;;7.60;6.90;;;;;;;;;;108651;1257;33102;-46